createdAt,value
2023-05-05T00:02:15.457Z,101566.50
2023-05-05T00:04:41.842Z,101561.56
2023-05-05T00:07:08.215Z,101560.53
2023-05-05T00:09:34.763Z,101563.91
2023-05-05T00:12:01.330Z,101566.03
2023-05-05T00:14:27.733Z,101568.75
2023-05-05T00:16:54.225Z,101572.72
2023-05-05T00:19:20.689Z,101575.25
2023-05-05T00:21:47.065Z,101564.81
2023-05-05T00:24:13.382Z,101568.63
2023-05-05T00:26:40.986Z,101559.72
2023-05-05T00:29:07.889Z,101557.81
2023-05-05T00:31:34.336Z,101553.47
2023-05-05T00:34:00.840Z,101547.19
2023-05-05T00:36:28.453Z,101553.66
2023-05-05T00:38:55.191Z,101544.47
2023-05-05T00:41:21.556Z,101547.84
2023-05-05T00:43:48.021Z,101560.78
2023-05-05T00:46:29.556Z,101567.78
2023-05-05T00:48:57.519Z,101576.94
2023-05-05T00:51:25.217Z,101578.59
2023-05-05T00:53:51.676Z,101577.88
2023-05-05T00:56:19.735Z,101584.91
2023-05-05T00:58:46.747Z,101577.03
2023-05-05T01:01:13.558Z,101574.88
2023-05-05T01:03:43.986Z,101561.63
2023-05-05T01:06:47.965Z,101560.66
2023-05-05T01:09:24.465Z,101566.09
2023-05-05T01:12:06.187Z,101557.31
2023-05-05T01:14:40.146Z,101565.25
2023-05-05T01:17:24.329Z,101561.03
2023-05-05T01:20:03.018Z,101570.06
2023-05-05T01:22:38.832Z,101563.03
2023-05-05T01:25:31.180Z,101564.50
2023-05-05T01:28:10.110Z,101568.00
2023-05-05T01:30:42.381Z,101568.63
2023-05-05T01:33:13.309Z,101572.16
2023-05-05T01:35:47.152Z,101577.34
2023-05-05T01:38:21.648Z,101579.03
2023-05-05T01:40:52.699Z,101589.84
2023-05-05T01:43:21.883Z,101585.91
2023-05-05T01:45:49.584Z,101582.41
2023-05-05T01:48:19.511Z,101581.25
2023-05-05T01:50:47.747Z,101583.91
2023-05-05T01:53:17.418Z,101589.91
2023-05-05T01:55:45.986Z,101594.38
2023-05-05T01:58:14.445Z,101604.06
2023-05-05T02:00:42.743Z,101617.41
2023-05-05T02:03:12.473Z,101614.88
2023-05-05T02:05:39.872Z,101620.81
2023-05-05T02:08:08.909Z,101605.72
2023-05-05T02:10:38.003Z,101597.75
2023-05-05T02:13:05.069Z,101575.75
2023-05-05T02:15:33.587Z,101570.44
2023-05-05T02:18:02.019Z,101563.56
2023-05-05T02:20:31.065Z,101546.78
2023-05-05T02:22:58.390Z,101553.16
2023-05-05T02:25:36.921Z,101579.59
2023-05-05T02:28:04.844Z,101584.25
2023-05-05T02:30:34.595Z,101580.66
2023-05-05T02:33:07.148Z,101574.84
2023-05-05T02:35:40.310Z,101579.91
2023-05-05T02:38:12.692Z,101580.44
2023-05-05T02:40:41.953Z,101579.47
2023-05-05T02:43:11.427Z,101584.16
2023-05-05T02:45:37.816Z,101578.97
2023-05-05T02:48:04.945Z,101585.44
2023-05-05T02:50:32.428Z,101578.66
2023-05-05T02:53:00.287Z,101581.53
2023-05-05T02:55:39.190Z,101572.94
2023-05-05T02:58:08.505Z,101577.63
2023-05-05T03:00:50.536Z,101581.69
2023-05-05T03:03:30.742Z,101571.06
2023-05-05T03:06:11.132Z,101582.75
2023-05-05T03:08:44.185Z,101574.91
2023-05-05T03:11:26.071Z,101583.81
2023-05-05T03:14:01.336Z,101585.03
2023-05-05T03:16:28.759Z,101591.22
2023-05-05T03:18:58.632Z,101590.56
2023-05-05T03:21:25.397Z,101595.00
2023-05-05T03:23:51.848Z,101601.28
2023-05-05T03:26:18.769Z,101603.28
2023-05-05T03:28:45.166Z,101610.38
2023-05-05T03:31:11.993Z,101611.34
2023-05-05T03:33:38.355Z,101623.09
2023-05-05T03:36:04.904Z,101608.38
2023-05-05T03:38:31.506Z,101612.97
2023-05-05T03:41:02.600Z,101604.91
2023-05-05T03:43:29.429Z,101591.84
2023-05-05T03:45:55.990Z,101596.53
2023-05-05T03:48:22.454Z,101600.31
2023-05-05T03:50:48.854Z,101611.66
2023-05-05T03:53:15.793Z,101607.13
2023-05-05T03:55:42.129Z,101616.84
2023-05-05T03:58:08.430Z,101636.16
2023-05-05T04:00:34.891Z,101638.81
2023-05-05T04:03:01.289Z,101635.28
2023-05-05T04:05:27.791Z,101634.44
2023-05-05T04:07:54.206Z,101647.34
2023-05-05T04:10:21.425Z,101654.34
2023-05-05T04:12:47.834Z,101657.94
2023-05-05T04:15:14.330Z,101656.88
2023-05-05T04:17:40.792Z,101662.28
2023-05-05T04:20:08.303Z,101668.53
2023-05-05T04:22:34.858Z,101667.06
2023-05-05T04:25:01.209Z,101671.50
2023-05-05T04:27:29.760Z,101677.09
2023-05-05T04:29:59.148Z,101673.50
2023-05-05T04:32:25.588Z,101679.88
2023-05-05T04:34:52.053Z,101686.09
2023-05-05T04:37:18.428Z,101692.28
2023-05-05T04:39:45.164Z,101697.56
2023-05-05T04:42:11.536Z,101701.69
2023-05-05T04:44:37.902Z,101698.09
2023-05-05T04:47:04.327Z,101696.28
2023-05-05T04:49:31.278Z,101688.88
2023-05-05T04:51:57.913Z,101697.53
2023-05-05T04:54:24.316Z,101691.69
2023-05-05T04:56:50.824Z,101696.22
2023-05-05T04:59:17.212Z,101700.47
2023-05-05T05:01:43.649Z,101698.75
2023-05-05T05:04:10.769Z,101703.41
2023-05-05T05:06:37.255Z,101706.16
2023-05-05T05:09:03.716Z,101714.00
2023-05-05T05:11:30.278Z,101722.16
2023-05-05T05:13:56.720Z,101716.75
2023-05-05T05:16:25.117Z,101716.34
2023-05-05T05:18:51.503Z,101711.59
2023-05-05T05:21:17.854Z,101708.69
2023-05-05T05:23:44.244Z,101711.75
2023-05-05T05:26:10.956Z,101718.22
2023-05-05T05:28:37.387Z,101725.25
2023-05-05T05:31:04.762Z,101723.75
2023-05-05T05:33:31.136Z,101721.84
2023-05-05T05:35:57.565Z,101728.66
2023-05-05T05:38:23.954Z,101730.34
2023-05-05T05:40:50.380Z,101724.84
2023-05-05T05:43:16.759Z,101729.19
2023-05-05T05:45:43.226Z,101736.38
2023-05-05T05:48:09.742Z,101745.38
2023-05-05T05:50:36.404Z,101740.84
2023-05-05T05:53:02.808Z,101741.78
2023-05-05T05:55:29.195Z,101745.09
2023-05-05T05:57:55.763Z,101743.09
2023-05-05T06:00:22.288Z,101742.03
2023-05-05T06:02:48.718Z,101740.13
2023-05-05T06:05:15.343Z,101742.22
2023-05-05T06:07:41.705Z,101737.88
2023-05-05T06:10:25.681Z,101739.28
2023-05-05T06:12:53.642Z,101732.94
2023-05-05T06:15:20.092Z,101731.03
2023-05-05T06:17:46.638Z,101734.22
2023-05-05T06:20:13.900Z,101729.56
2023-05-05T06:22:40.385Z,101722.38
2023-05-05T06:25:07.147Z,101733.63
2023-05-05T06:27:33.558Z,101739.47
2023-05-05T06:29:59.892Z,101736.59
2023-05-05T06:32:26.293Z,101740.97
2023-05-05T06:34:52.732Z,101740.66
2023-05-05T06:37:19.093Z,101755.28
2023-05-05T06:39:45.438Z,101753.41
2023-05-05T06:42:11.769Z,101754.00
2023-05-05T06:44:38.135Z,101746.72
2023-05-05T06:47:04.590Z,101754.47
2023-05-05T06:49:31.169Z,101757.84
2023-05-05T06:51:57.564Z,101759.56
2023-05-05T06:54:23.937Z,101761.97
2023-05-05T06:56:50.350Z,101760.09
2023-05-05T06:59:16.744Z,101760.84
2023-05-05T07:01:43.102Z,101758.94
2023-05-05T07:04:10.368Z,101769.38
2023-05-05T07:06:36.784Z,101761.09
2023-05-05T07:09:04.257Z,101771.50
2023-05-05T07:11:30.678Z,101776.47
2023-05-05T07:13:57.031Z,101768.31
2023-05-05T07:16:24.860Z,101773.41
2023-05-05T07:18:51.294Z,101775.94
2023-05-05T07:21:17.694Z,101769.56
2023-05-05T07:23:46.099Z,101775.75
2023-05-05T07:26:12.596Z,101769.56
2023-05-05T07:28:38.978Z,101775.88
2023-05-05T07:31:05.341Z,101778.50
2023-05-05T07:33:31.757Z,101782.00
2023-05-05T07:35:58.093Z,101781.69
2023-05-05T07:38:25.621Z,101784.13
2023-05-05T07:40:51.961Z,101783.19
2023-05-05T07:43:18.444Z,101779.47
2023-05-05T07:45:44.831Z,101770.44
2023-05-05T07:48:11.493Z,101778.19
2023-05-05T07:50:37.887Z,101770.75
2023-05-05T07:53:13.651Z,101786.25
2023-05-05T07:55:41.385Z,101783.41
2023-05-05T07:58:08.450Z,101779.56
2023-05-05T08:00:34.896Z,101781.03
2023-05-05T08:03:01.352Z,101772.84
2023-05-05T08:05:27.958Z,101769.13
2023-05-05T08:07:54.400Z,101779.44
2023-05-05T08:10:22.205Z,101775.59
2023-05-05T08:12:49.113Z,101778.06
2023-05-05T08:15:18.596Z,101785.56
2023-05-05T08:17:52.252Z,101778.66
2023-05-05T08:20:20.317Z,101785.03
2023-05-05T08:22:47.158Z,101778.94
2023-05-05T08:25:14.284Z,101778.66
2023-05-05T08:27:41.974Z,101779.03
2023-05-05T08:30:09.334Z,101775.94
2023-05-05T08:32:35.821Z,101771.88
2023-05-05T08:35:03.420Z,101770.13
2023-05-05T08:37:29.832Z,101775.53
2023-05-05T08:39:57.768Z,101789.38
2023-05-05T08:42:36.437Z,101789.81
2023-05-05T08:45:04.342Z,101791.13
2023-05-05T08:47:32.247Z,101795.63
2023-05-05T08:49:59.516Z,101790.06
2023-05-05T08:52:29.348Z,101791.66
2023-05-05T08:55:06.617Z,101795.78
2023-05-05T08:57:44.003Z,101803.66
2023-05-05T09:00:12.745Z,101801.72
2023-05-05T09:02:40.488Z,101798.94
2023-05-05T09:05:07.854Z,101800.44
2023-05-05T09:07:34.864Z,101803.81
2023-05-05T09:10:04.631Z,101798.50
2023-05-05T09:12:32.098Z,101800.31
2023-05-05T09:14:59.427Z,101793.06
2023-05-05T09:17:26.580Z,101787.03
2023-05-05T09:20:04.474Z,101800.31
2023-05-05T09:22:46.049Z,101792.47
2023-05-05T09:25:14.241Z,101789.91
2023-05-05T09:27:46.246Z,101792.34
2023-05-05T09:30:16.664Z,101792.09
2023-05-05T09:32:53.952Z,101796.22
2023-05-05T09:35:22.237Z,101800.59
2023-05-05T09:37:48.776Z,101791.53
2023-05-05T09:40:18.905Z,101802.91
2023-05-05T09:42:45.652Z,101796.84
2023-05-05T09:45:18.223Z,101791.66
2023-05-05T09:47:46.349Z,101791.78
2023-05-05T09:50:18.363Z,101790.19
2023-05-05T09:52:58.092Z,101785.97
2023-05-05T09:55:25.453Z,101778.81
2023-05-05T09:57:52.241Z,101788.50
2023-05-05T10:00:19.316Z,101784.75
2023-05-05T10:02:45.960Z,101790.59
2023-05-05T10:05:16.415Z,101787.69
2023-05-05T10:07:44.909Z,101786.72
2023-05-05T10:10:13.275Z,101781.41
2023-05-05T10:12:40.091Z,101800.13
2023-05-05T10:15:11.569Z,101821.13
2023-05-05T10:18:05.181Z,101840.84
2023-05-05T10:20:33.504Z,101851.72
2023-05-05T10:23:02.725Z,101856.16
2023-05-05T10:25:33.648Z,101837.91
2023-05-05T10:28:01.323Z,101826.13
2023-05-05T10:30:32.103Z,101845.47
2023-05-05T10:33:31.965Z,101840.56
2023-05-05T10:36:01.695Z,101840.72
2023-05-05T10:38:30.840Z,101827.34
2023-05-05T10:41:02.814Z,101834.63
2023-05-05T10:43:32.080Z,101829.16
2023-05-05T10:45:59.461Z,101823.88
2023-05-05T10:48:36.272Z,101837.66
2023-05-05T10:51:35.165Z,101839.19
2023-05-05T10:54:42.620Z,101849.03
2023-05-05T10:57:10.762Z,101842.31
2023-05-05T10:59:37.220Z,101841.88
2023-05-05T11:02:25.018Z,101855.88
2023-05-05T11:05:17.584Z,101873.47
2023-05-05T11:07:46.559Z,101872.59
2023-05-05T11:10:14.956Z,101874.69
2023-05-05T11:12:53.968Z,101871.31
2023-05-05T11:15:26.382Z,101866.75
2023-05-05T11:17:54.059Z,101855.88
2023-05-05T11:20:39.604Z,101867.97
2023-05-05T11:23:06.195Z,101869.38
2023-05-05T11:25:36.173Z,101865.69
2023-05-05T11:28:19.018Z,101855.38
2023-05-05T11:30:54.494Z,101853.41
2023-05-05T11:33:30.240Z,101866.63
2023-05-05T11:36:04.189Z,101877.91
2023-05-05T11:38:53.016Z,101885.66
2023-05-05T11:41:34.620Z,101875.53
2023-05-05T11:44:29.302Z,101883.25
2023-05-05T11:46:55.665Z,101883.25
2023-05-05T11:49:36.745Z,101872.66
2023-05-05T11:52:15.115Z,101881.38
2023-05-05T11:54:50.001Z,101878.81
2023-05-05T11:57:20.922Z,101881.47
2023-05-05T11:59:54.795Z,101877.22
2023-05-05T12:02:21.950Z,101882.53
2023-05-05T12:04:49.367Z,101869.47
2023-05-05T12:07:17.583Z,101884.25
2023-05-05T12:09:45.724Z,101874.59
2023-05-05T12:12:12.637Z,101866.63
2023-05-05T12:14:47.093Z,101865.44
2023-05-05T12:17:13.530Z,101865.34
2023-05-05T12:19:46.092Z,101875.94
2023-05-05T12:22:19.090Z,101862.81
2023-05-05T12:24:45.496Z,101865.34
2023-05-05T12:27:12.068Z,101872.16
2023-05-05T12:29:38.416Z,101874.59
2023-05-05T12:32:05.219Z,101866.75
2023-05-05T12:34:32.496Z,101870.53
2023-05-05T12:36:59.210Z,101869.50
2023-05-05T12:39:37.770Z,101864.97
2023-05-05T12:42:04.780Z,101869.28
2023-05-05T12:44:36.041Z,101865.41
2023-05-05T12:47:03.004Z,101867.13
2023-05-05T12:49:29.547Z,101861.72
2023-05-05T12:51:56.985Z,101856.31
2023-05-05T12:54:25.076Z,101859.81
2023-05-05T12:56:51.501Z,101859.06
2023-05-05T12:59:20.829Z,101856.41
2023-05-05T13:01:52.428Z,101862.28
2023-05-05T13:04:21.054Z,101856.75
2023-05-05T13:06:49.056Z,101855.16
2023-05-05T13:09:25.684Z,101854.50
2023-05-05T13:11:52.908Z,101856.31
2023-05-05T13:14:19.600Z,101854.31
2023-05-05T13:16:46.357Z,101850.91
2023-05-05T13:19:12.760Z,101856.88
2023-05-05T13:21:39.182Z,101858.84
2023-05-05T13:24:21.491Z,101851.84
2023-05-05T13:26:53.170Z,101849.97
2023-05-05T13:29:19.661Z,101856.22
2023-05-05T13:31:46.248Z,101868.91
2023-05-05T13:34:12.928Z,101866.25
2023-05-05T13:36:39.322Z,101880.25
2023-05-05T13:39:05.710Z,101877.63
2023-05-05T13:41:32.074Z,101874.97
2023-05-05T13:43:58.455Z,101886.59
2023-05-05T13:46:24.983Z,101884.25
2023-05-05T13:48:54.670Z,101888.69
2023-05-05T13:51:22.871Z,101887.38
2023-05-05T13:53:49.186Z,101884.00
2023-05-05T13:56:15.683Z,101888.63
2023-05-05T13:58:42.496Z,101892.59
2023-05-05T14:01:10.421Z,101887.19
2023-05-05T14:03:36.867Z,101878.22
2023-05-05T14:06:03.310Z,101880.28
2023-05-05T14:08:29.687Z,101880.50
2023-05-05T14:10:56.123Z,101877.38
2023-05-05T14:13:22.953Z,101868.19
2023-05-05T14:15:50.703Z,101868.41
2023-05-05T14:18:17.069Z,101860.25
2023-05-05T14:20:43.397Z,101856.94
2023-05-05T14:23:09.792Z,101853.56
2023-05-05T14:25:36.129Z,101849.00
2023-05-05T14:28:02.545Z,101841.94
2023-05-05T14:30:29.009Z,101832.63
2023-05-05T14:32:55.418Z,101836.81
2023-05-05T14:35:21.846Z,101833.13
2023-05-05T14:37:48.186Z,101820.72
2023-05-05T14:40:14.540Z,101806.44
2023-05-05T14:42:40.938Z,101813.44
2023-05-05T14:45:09.452Z,101805.38
2023-05-05T14:47:35.973Z,101777.41
2023-05-05T14:50:02.344Z,101772.13
2023-05-05T14:52:28.690Z,101782.81
2023-05-05T14:54:55.107Z,101795.00
2023-05-05T14:57:21.525Z,101810.69
2023-05-05T14:59:51.836Z,101824.69
2023-05-05T15:02:18.714Z,101831.66
2023-05-05T15:04:45.130Z,101826.19
2023-05-05T15:07:11.572Z,101829.56
2023-05-05T15:09:37.920Z,101819.19
2023-05-05T15:12:04.601Z,101822.97
2023-05-05T15:14:31.203Z,101826.34
2023-05-05T15:16:57.609Z,101825.41
2023-05-05T15:19:23.975Z,101825.31
2023-05-05T15:21:53.216Z,101813.88
2023-05-05T15:24:20.814Z,101820.88
2023-05-05T15:26:47.300Z,101815.59
2023-05-05T15:29:13.700Z,101817.28
2023-05-05T15:31:40.135Z,101813.66
2023-05-05T15:34:06.799Z,101810.28
2023-05-05T15:36:33.190Z,101800.34
2023-05-05T15:38:59.594Z,101801.09
2023-05-05T15:41:29.262Z,101789.53
2023-05-05T15:43:55.849Z,101791.03
2023-05-05T15:46:22.216Z,101792.75
2023-05-05T15:48:48.638Z,101791.69
2023-05-05T15:51:16.183Z,101794.16
2023-05-05T15:53:42.675Z,101795.09
2023-05-05T15:56:09.118Z,101788.84
2023-05-05T15:58:36.616Z,101788.84
2023-05-05T16:01:03.237Z,101793.19
2023-05-05T16:03:29.755Z,101793.19
2023-05-05T16:05:56.330Z,101795.69
2023-05-05T16:08:22.691Z,101787.84
2023-05-05T16:10:49.113Z,101785.84
2023-05-05T16:13:15.808Z,101787.84
2023-05-05T16:15:42.542Z,101786.91
2023-05-05T16:18:08.912Z,101786.69
2023-05-05T16:20:35.284Z,101786.69
2023-05-05T16:23:01.605Z,101786.78
2023-05-05T16:25:28.006Z,101784.03
2023-05-05T16:27:56.656Z,101781.31
2023-05-05T16:30:23.043Z,101773.25
2023-05-05T16:32:51.636Z,101776.56
2023-05-05T16:35:18.112Z,101770.09
2023-05-05T16:37:44.479Z,101767.22
2023-05-05T16:40:11.531Z,101770.41
2023-05-05T16:42:38.058Z,101771.28
2023-05-05T16:45:05.145Z,101768.63
2023-05-05T16:47:31.630Z,101774.78
2023-05-05T16:49:58.076Z,101768.13
2023-05-05T16:52:24.406Z,101769.72
2023-05-05T16:54:55.455Z,101763.56
2023-05-05T16:57:22.608Z,101765.66
2023-05-05T16:59:49.233Z,101768.84
2023-05-05T17:02:16.023Z,101778.31
2023-05-05T17:04:42.385Z,101771.00
2023-05-05T17:07:08.831Z,101775.25
2023-05-05T17:09:35.304Z,101775.88
2023-05-05T17:12:02.254Z,101773.16
2023-05-05T17:14:28.650Z,101771.06
2023-05-05T17:16:55.032Z,101778.69
2023-05-05T17:19:21.391Z,101778.41
2023-05-05T17:21:47.728Z,101769.28
2023-05-05T17:24:14.236Z,101781.78
2023-05-05T17:26:41.438Z,101772.88
2023-05-05T17:29:08.189Z,101779.75
2023-05-05T17:31:34.620Z,101787.59
2023-05-05T17:34:01.119Z,101774.56
2023-05-05T17:36:27.550Z,101776.81
2023-05-05T17:38:53.900Z,101772.22
2023-05-05T17:41:20.480Z,101774.69
2023-05-05T17:43:46.896Z,101768.50
2023-05-05T17:46:13.342Z,101785.94
2023-05-05T17:48:39.831Z,101782.53
2023-05-05T17:51:06.232Z,101774.69
2023-05-05T17:53:32.600Z,101773.81
2023-05-05T17:58:25.522Z,101786.66
2023-05-05T18:00:51.870Z,101791.66
2023-05-05T18:03:18.440Z,101792.38
2023-05-05T18:05:45.018Z,101795.78
2023-05-05T18:08:11.653Z,101787.94
2023-05-05T18:10:38.024Z,101796.22
2023-05-05T18:13:04.631Z,101801.84
2023-05-05T18:15:31.039Z,101794.44
2023-05-05T18:17:57.468Z,101796.72
2023-05-05T18:20:23.859Z,101801.72
2023-05-05T18:22:50.294Z,101793.00
2023-05-05T18:25:17.184Z,101797.59
2023-05-05T18:27:44.466Z,101789.94
2023-05-05T18:30:11.408Z,101794.53
2023-05-05T18:32:38.021Z,101787.00
2023-05-05T18:35:04.703Z,101796.00
2023-05-05T18:37:31.083Z,101801.09
2023-05-05T18:39:57.496Z,101804.16
2023-05-05T18:42:23.872Z,101807.72
2023-05-05T18:44:50.228Z,101804.44
2023-05-05T18:47:16.624Z,101810.78
2023-05-05T18:49:45.268Z,101805.69
2023-05-05T18:52:11.733Z,101813.81
2023-05-05T18:54:38.141Z,101801.72
2023-05-05T18:57:04.514Z,101810.94
2023-05-05T18:59:30.970Z,101808.59
2023-05-05T19:01:57.497Z,101812.38
2023-05-05T19:04:31.438Z,101810.88
2023-05-05T19:07:14.355Z,101807.47
2023-05-05T19:09:44.808Z,101816.56
2023-05-05T19:12:11.252Z,101816.84
2023-05-05T19:14:37.669Z,101815.25
2023-05-05T19:17:04.143Z,101824.13
2023-05-05T19:19:30.698Z,101825.28
2023-05-05T19:21:58.043Z,101822.84
2023-05-05T19:24:24.495Z,101817.72
2023-05-05T19:26:50.864Z,101831.91
2023-05-05T19:29:17.602Z,101828.50
2023-05-05T19:31:43.995Z,101833.81
2023-05-05T19:34:10.543Z,101843.63
2023-05-05T19:36:37.830Z,101836.72
2023-05-05T19:39:04.767Z,101845.63
2023-05-05T19:41:31.577Z,101845.81
2023-05-05T19:43:57.978Z,101844.22
2023-05-05T19:46:27.049Z,101846.84
2023-05-05T19:48:53.391Z,101845.53
2023-05-05T19:51:19.774Z,101843.19
2023-05-05T19:53:46.254Z,101842.47
2023-05-05T19:56:12.707Z,101845.13
2023-05-05T19:58:55.293Z,101855.97
2023-05-05T20:01:21.881Z,101852.59
2023-05-05T20:03:48.608Z,101847.78
2023-05-05T20:06:15.245Z,101846.16
2023-05-05T20:08:41.592Z,101852.28
2023-05-05T20:11:07.963Z,101860.31
2023-05-05T20:13:35.200Z,101857.84
2023-05-05T20:16:01.656Z,101855.50
2023-05-05T20:18:27.992Z,101854.72
2023-05-05T20:20:54.439Z,101856.63
2023-05-05T20:23:20.855Z,101860.03
2023-05-05T20:25:47.277Z,101859.19
2023-05-05T20:28:13.615Z,101855.75
2023-05-05T20:30:39.993Z,101855.03
2023-05-05T20:33:06.402Z,101867.22
2023-05-05T20:35:32.809Z,101855.75
2023-05-05T20:37:59.169Z,101868.88
2023-05-05T20:40:26.049Z,101866.19
2023-05-05T20:42:52.516Z,101861.06
2023-05-05T20:45:19.057Z,101868.88
2023-05-05T20:47:45.607Z,101862.09
2023-05-05T20:50:12.156Z,101861.41
2023-05-05T20:52:38.694Z,101852.06
2023-05-05T20:55:05.607Z,101862.16
2023-05-05T20:57:32.010Z,101852.44
2023-05-05T20:59:58.431Z,101847.34
2023-05-05T21:02:24.870Z,101850.22
2023-05-05T21:04:51.290Z,101851.47
2023-05-05T21:07:17.629Z,101853.44
2023-05-05T21:09:46.628Z,101850.09
2023-05-05T21:12:12.998Z,101851.97
2023-05-05T21:14:44.050Z,101851.31
2023-05-05T21:17:10.365Z,101854.91
2023-05-05T21:19:36.738Z,101847.13
2023-05-05T21:22:03.196Z,101844.69
2023-05-05T21:24:29.674Z,101849.19
2023-05-05T21:26:56.459Z,101846.94
2023-05-05T21:29:24.578Z,101853.41
2023-05-05T21:31:50.938Z,101853.41
2023-05-05T21:34:17.977Z,101847.97
2023-05-05T21:36:44.349Z,101847.28
2023-05-05T21:39:10.671Z,101851.88
2023-05-05T21:41:37.050Z,101855.34
2023-05-05T21:44:03.464Z,101842.16
2023-05-05T21:46:29.901Z,101852.03
2023-05-05T21:48:56.390Z,101850.34
2023-05-05T21:51:23.394Z,101848.66
2023-05-05T21:53:49.728Z,101846.94
2023-05-05T21:56:16.166Z,101842.78
2023-05-05T21:58:42.603Z,101846.44
2023-05-05T22:01:09.009Z,101844.81
2023-05-05T22:03:36.281Z,101844.03
2023-05-05T22:06:02.923Z,101838.94
2023-05-05T22:08:29.379Z,101841.84
2023-05-05T22:10:55.887Z,101839.44
2023-05-05T22:13:22.372Z,101841.31
2023-05-05T22:15:48.785Z,101846.41
2023-05-05T22:18:15.616Z,101844.63
2023-05-05T22:20:42.152Z,101846.59
2023-05-05T22:23:08.682Z,101839.00
2023-05-05T22:25:35.354Z,101846.91
2023-05-05T22:28:01.841Z,101848.97
2023-05-05T22:30:28.295Z,101860.63
2023-05-05T22:32:55.021Z,101846.66
2023-05-05T22:35:21.536Z,101840.25
2023-05-05T22:37:47.917Z,101837.38
2023-05-05T22:40:14.482Z,101844.38
2023-05-05T22:42:40.843Z,101841.38
2023-05-05T22:45:09.471Z,101852.72
2023-05-05T22:47:36.066Z,101850.16
2023-05-05T22:50:02.550Z,101844.78
2023-05-05T22:52:29.022Z,101845.41
2023-05-05T22:54:56.318Z,101833.91
2023-05-05T22:57:22.735Z,101838.50
2023-05-05T22:59:49.515Z,101835.75
2023-05-05T23:02:15.916Z,101831.41
2023-05-05T23:04:44.537Z,101835.16
2023-05-05T23:07:13.865Z,101836.09
2023-05-05T23:09:40.770Z,101832.53
2023-05-05T23:12:07.291Z,101834.00
2023-05-05T23:14:35.677Z,101832.09
2023-05-05T23:17:02.159Z,101836.53
2023-05-05T23:19:29.092Z,101831.25
2023-05-05T23:21:55.677Z,101834.50
2023-05-05T23:24:22.195Z,101836.88
2023-05-05T23:26:48.649Z,101830.56
2023-05-05T23:29:14.986Z,101831.53
2023-05-05T23:31:41.356Z,101828.94
2023-05-05T23:34:07.751Z,101823.66
2023-05-05T23:36:34.101Z,101828.88
2023-05-05T23:39:00.562Z,101829.91
2023-05-05T23:41:27.017Z,101828.19
2023-05-05T23:43:53.343Z,101826.13
2023-05-05T23:46:19.781Z,101825.44
2023-05-05T23:48:46.129Z,101821.88
2023-05-05T23:51:12.432Z,101822.75
2023-05-05T23:53:38.849Z,101824.44
2023-05-05T23:56:05.621Z,101824.28
2023-05-05T23:58:31.978Z,101818.81
